createdAt,value
2018-06-10T00:00:19.970Z,8.67
2018-06-10T00:02:52.174Z,9.13
2018-06-10T00:05:22.188Z,9.80
2018-06-10T00:07:58.182Z,9.43
2018-06-10T00:10:28.617Z,8.83
2018-06-10T00:13:01.032Z,9.17
2018-06-10T00:15:32.129Z,9.33
2018-06-10T00:18:02.194Z,9.97
2018-06-10T00:20:34.181Z,10.13
2018-06-10T00:23:05.101Z,9.27
2018-06-10T00:25:37.748Z,9.33
2018-06-10T00:28:08.780Z,9.00
2018-06-10T00:30:40.467Z,9.60
2018-06-10T00:33:11.300Z,9.67
2018-06-10T00:35:40.331Z,10.03
2018-06-10T00:38:11.251Z,11.00
2018-06-10T00:40:41.079Z,10.00
2018-06-10T00:43:12.598Z,10.17
2018-06-10T00:45:43.172Z,9.03
2018-06-10T00:48:12.697Z,9.87
2018-06-10T00:50:42.466Z,10.10
2018-06-10T00:53:13.411Z,9.80
2018-06-10T00:55:42.258Z,8.80
2018-06-10T00:58:19.608Z,9.33
2018-06-10T01:00:49.370Z,9.37
2018-06-10T01:03:19.355Z,10.60
2018-06-10T01:05:50.103Z,9.23
2018-06-10T01:08:22.687Z,9.70
2018-06-10T01:10:53.193Z,10.53
2018-06-10T01:13:22.863Z,9.43
2018-06-10T01:15:52.030Z,10.23
2018-06-10T01:18:24.657Z,10.90
2018-06-10T01:20:53.835Z,9.97
2018-06-10T01:23:27.545Z,9.13
2018-06-10T01:26:00.772Z,9.97
2018-06-10T01:28:31.070Z,10.10
2018-06-10T01:31:00.535Z,9.17
2018-06-10T01:33:37.759Z,9.13
2018-06-10T01:36:06.933Z,9.90
2018-06-10T01:38:37.750Z,10.13
2018-06-10T01:41:07.706Z,9.37
2018-06-10T01:43:36.826Z,9.87
2018-06-10T01:46:06.401Z,9.80
2018-06-10T01:48:37.152Z,10.40
2018-06-10T01:51:07.023Z,9.47
2018-06-10T01:53:40.170Z,9.70
2018-06-10T01:56:09.398Z,9.43
2018-06-10T01:58:42.283Z,9.30
2018-06-10T02:01:12.170Z,9.50
2018-06-10T02:03:43.098Z,9.67
2018-06-10T02:06:12.098Z,8.90
2018-06-10T02:08:46.417Z,9.70
2018-06-10T02:11:17.710Z,10.00
2018-06-10T02:13:48.162Z,9.80
2018-06-10T02:16:18.362Z,11.50
2018-06-10T02:18:50.638Z,9.80
2018-06-10T02:21:20.919Z,9.80
2018-06-10T02:23:52.277Z,10.03
2018-06-10T02:26:21.914Z,10.00
2018-06-10T02:28:55.470Z,10.00
2018-06-10T02:31:25.895Z,10.67
2018-06-10T02:33:57.916Z,10.00
2018-06-10T02:36:35.630Z,9.17
2018-06-10T02:39:07.384Z,9.87
2018-06-10T02:44:41.043Z,9.83
2018-06-10T02:47:10.855Z,9.93
2018-06-10T02:49:52.176Z,10.17
2018-06-10T02:52:21.996Z,10.10
2018-06-10T02:57:43.869Z,10.27
2018-06-10T03:00:13.881Z,9.17
2018-06-10T03:02:46.914Z,11.23
2018-06-10T03:05:26.007Z,11.07
2018-06-10T03:08:10.208Z,10.40
2018-06-10T03:10:39.225Z,10.77
2018-06-10T03:13:22.324Z,11.87
2018-06-10T03:15:51.630Z,10.33
2018-06-10T03:18:20.759Z,10.50
2018-06-10T03:20:51.754Z,10.43
2018-06-10T03:23:21.206Z,10.50
2018-06-10T03:25:51.052Z,9.93
2018-06-10T03:31:09.069Z,10.40
2018-06-10T03:33:38.626Z,11.10
2018-06-10T03:36:08.424Z,11.43
2018-06-10T03:38:37.814Z,10.10
2018-06-10T03:47:11.612Z,10.80
2018-06-10T03:49:55.538Z,11.50
2018-06-10T03:52:49.706Z,11.37
2018-06-10T03:55:19.714Z,10.30
2018-06-10T03:57:50.794Z,10.33
2018-06-10T04:00:34.725Z,10.87
2018-06-10T04:03:04.121Z,10.90
2018-06-10T04:05:41.717Z,9.67
2018-06-10T04:10:55.312Z,10.67
2018-06-10T04:13:24.754Z,9.67
2018-06-10T04:15:54.277Z,9.77
2018-06-10T04:18:24.325Z,9.13
2018-06-10T04:20:53.669Z,8.43
2018-06-10T04:23:22.862Z,7.20
2018-06-10T04:25:52.206Z,8.10
2018-06-10T04:28:22.176Z,8.77
2018-06-10T04:30:51.893Z,8.03
2018-06-10T04:33:21.232Z,7.47
2018-06-10T04:35:49.982Z,8.00
2018-06-10T04:38:18.893Z,6.90
2018-06-10T04:41:06.187Z,7.67
2018-06-10T04:43:57.316Z,7.60
2018-06-10T04:46:28.713Z,7.47
2018-06-10T04:48:59.917Z,8.23
2018-06-10T04:51:28.900Z,7.57
2018-06-10T04:54:01.345Z,7.40
2018-06-10T04:56:31.491Z,8.17
2018-06-10T04:59:00.893Z,8.70
2018-06-10T05:01:31.342Z,7.43
2018-06-10T05:04:00.306Z,8.70
2018-06-10T05:06:29.817Z,9.50
2018-06-10T05:09:01.355Z,8.83
2018-06-10T05:11:39.922Z,8.53
2018-06-10T05:14:21.441Z,10.97
2018-06-10T05:17:05.520Z,11.13
2018-06-10T05:19:35.617Z,11.77
2018-06-10T05:22:07.883Z,11.47
2018-06-10T05:24:37.420Z,9.90
2018-06-10T05:27:09.580Z,9.73
2018-06-10T05:29:44.378Z,9.33
2018-06-10T05:32:13.434Z,10.20
2018-06-10T05:34:42.583Z,9.90
2018-06-10T05:37:13.266Z,10.73
2018-06-10T05:39:42.417Z,11.83
2018-06-10T05:42:15.706Z,10.57
2018-06-10T05:44:44.598Z,12.80
2018-06-10T05:47:16.805Z,12.17
2018-06-10T05:49:46.347Z,13.20
2018-06-10T05:52:19.194Z,13.90
2018-06-10T05:54:48.237Z,12.67
2018-06-10T05:57:20.749Z,13.43
2018-06-10T05:59:50.294Z,13.73
2018-06-10T06:02:22.769Z,15.13
2018-06-10T06:04:51.770Z,14.20
2018-06-10T06:07:24.178Z,14.87
2018-06-10T06:09:52.999Z,14.73
2018-06-10T06:12:26.420Z,16.93
2018-06-10T06:14:55.150Z,16.30
2018-06-10T06:17:31.121Z,15.83
2018-06-10T06:20:00.339Z,16.97
2018-06-10T06:22:30.330Z,21.43
2018-06-10T06:24:59.974Z,21.13
2018-06-10T06:27:33.047Z,24.73
2018-06-10T06:30:02.262Z,22.50
2018-06-10T06:32:34.683Z,25.33
2018-06-10T06:35:04.135Z,27.63
2018-06-10T06:37:36.948Z,26.00
2018-06-10T06:40:06.024Z,25.30
2018-06-10T06:42:38.331Z,26.80
2018-06-10T06:45:07.589Z,26.37
2018-06-10T06:47:45.138Z,28.87
2018-06-10T06:50:13.899Z,28.27
2018-06-10T06:52:43.441Z,27.47
2018-06-10T06:55:13.521Z,27.60
2018-06-10T06:57:45.316Z,29.47
2018-06-10T07:00:14.074Z,28.87
2018-06-10T07:02:47.037Z,27.53
2018-06-10T07:05:15.822Z,26.57
2018-06-10T07:07:49.115Z,27.27
2018-06-10T07:10:18.198Z,26.40
2018-06-10T07:12:54.966Z,27.13
2018-06-10T07:15:23.778Z,28.87
2018-06-10T07:17:53.643Z,29.50
2018-06-10T07:20:23.962Z,28.73
2018-06-10T07:22:57.582Z,29.30
2018-06-10T07:25:26.638Z,30.07
2018-06-10T07:27:58.432Z,30.97
2018-06-10T07:30:27.438Z,30.83
2018-06-10T07:33:01.168Z,29.37
2018-06-10T07:35:29.947Z,31.13
2018-06-10T07:38:02.526Z,31.47
2018-06-10T07:40:31.575Z,33.03
2018-06-10T07:43:04.742Z,32.50
2018-06-10T07:45:33.751Z,30.80
2018-06-10T07:48:07.018Z,30.63
2018-06-10T07:50:35.862Z,31.60
2018-06-10T07:53:12.116Z,31.70
2018-06-10T07:55:41.200Z,31.13
2018-06-10T07:58:12.253Z,30.30
2018-06-10T08:00:42.013Z,32.23
2018-06-10T08:03:14.778Z,33.43
2018-06-10T08:05:44.729Z,32.80
2018-06-10T08:08:15.229Z,30.13
2018-06-10T08:10:44.254Z,32.63
2018-06-10T08:13:16.636Z,33.33
2018-06-10T08:15:47.268Z,35.53
2018-06-10T08:18:18.560Z,34.50
2018-06-10T08:20:47.365Z,33.93
2018-06-10T08:23:23.983Z,33.13
2018-06-10T08:25:53.041Z,32.03
2018-06-10T08:28:22.257Z,34.23
2018-06-10T08:30:51.880Z,33.07
2018-06-10T08:33:26.314Z,34.77
2018-06-10T08:35:57.631Z,34.47
2018-06-10T08:38:26.454Z,34.63
2018-06-10T08:40:55.481Z,34.20
2018-06-10T08:43:30.977Z,33.87
2018-06-10T08:46:00.109Z,33.93
2018-06-10T08:48:30.233Z,34.70
2018-06-10T08:50:59.353Z,34.00
2018-06-10T08:53:38.434Z,34.23
2018-06-10T08:56:07.598Z,35.63
2018-06-10T08:58:36.932Z,35.27
2018-06-10T09:01:05.955Z,36.33
2018-06-10T09:03:37.017Z,36.07
2018-06-10T09:06:06.279Z,36.33
2018-06-10T09:08:38.944Z,37.03
2018-06-10T09:11:09.395Z,36.10
2018-06-10T09:13:41.465Z,35.87
2018-06-10T09:16:10.234Z,36.97
2018-06-10T09:18:43.237Z,35.87
2018-06-10T09:21:12.417Z,36.93
2018-06-10T09:23:50.256Z,37.77
2018-06-10T09:26:19.338Z,36.63
2018-06-10T09:28:48.456Z,36.30
2018-06-10T09:31:19.685Z,36.17
2018-06-10T09:33:49.203Z,37.30
2018-06-10T09:36:19.312Z,35.77
2018-06-10T09:38:52.179Z,36.00
2018-06-10T09:41:21.029Z,36.90
2018-06-10T09:43:54.599Z,35.93
2018-06-10T09:46:26.488Z,35.77
2018-06-10T09:48:57.254Z,36.90
2018-06-10T09:51:26.257Z,37.40
2018-06-10T09:54:00.782Z,36.57
2018-06-10T09:56:29.708Z,35.60
2018-06-10T09:59:01.818Z,36.67
2018-06-10T10:01:31.038Z,36.60
2018-06-10T10:04:07.173Z,35.33
2018-06-10T10:06:36.676Z,35.80
2018-06-10T10:09:07.937Z,34.17
2018-06-10T10:11:37.643Z,33.57
2018-06-10T10:14:07.429Z,32.97
2018-06-10T10:16:36.424Z,33.17
2018-06-10T10:19:12.418Z,35.60
2018-06-10T10:21:41.225Z,33.63
2018-06-10T10:24:13.698Z,33.30
2018-06-10T10:26:42.535Z,33.23
2018-06-10T10:29:14.324Z,32.27
2018-06-10T10:31:44.638Z,33.60
2018-06-10T10:34:17.781Z,34.80
2018-06-10T10:36:46.876Z,34.20
2018-06-10T10:39:19.178Z,34.07
2018-06-10T10:41:51.781Z,35.37
2018-06-10T10:44:22.865Z,33.73
2018-06-10T10:46:51.783Z,36.60
2018-06-10T10:49:23.442Z,33.57
2018-06-10T10:51:52.823Z,38.40
2018-06-10T10:54:25.319Z,39.23
2018-06-10T10:56:55.465Z,39.03
2018-06-10T10:59:27.854Z,38.43
2018-06-10T11:01:56.687Z,40.47
2018-06-10T11:04:29.790Z,38.20
2018-06-10T11:06:58.722Z,40.00
2018-06-10T11:09:31.361Z,39.73
2018-06-10T11:12:02.113Z,38.47
2018-06-10T11:14:32.587Z,40.20
2018-06-10T11:17:03.102Z,41.80
2018-06-10T11:19:36.712Z,40.87
2018-06-10T11:22:09.375Z,41.17
2018-06-10T11:24:40.096Z,40.03
2018-06-10T11:27:09.368Z,39.07
2018-06-10T11:29:47.746Z,39.50
2018-06-10T11:32:19.712Z,39.27
2018-06-10T11:34:48.874Z,42.70
2018-06-10T11:37:17.666Z,41.03
2018-06-10T11:39:47.688Z,39.87
2018-06-10T11:42:17.002Z,41.07
2018-06-10T11:44:46.030Z,41.67
2018-06-10T11:47:14.870Z,42.00
2018-06-10T11:49:52.735Z,40.80
2018-06-10T11:52:22.178Z,39.70
2018-06-10T11:54:52.719Z,39.47
2018-06-10T11:57:22.157Z,40.63
2018-06-10T11:59:54.781Z,41.23
2018-06-10T12:02:23.701Z,42.43
2018-06-10T12:04:53.941Z,41.90
2018-06-10T12:07:22.827Z,42.87
2018-06-10T12:10:00.560Z,43.30
2018-06-10T12:12:31.224Z,43.07
2018-06-10T12:15:00.936Z,41.23
2018-06-10T12:17:29.803Z,45.83
2018-06-10T12:20:03.737Z,45.23
2018-06-10T12:22:32.973Z,45.20
2018-06-10T12:25:04.379Z,42.73
2018-06-10T12:27:33.685Z,42.80
2018-06-10T12:30:06.653Z,41.37
2018-06-10T12:32:36.493Z,38.90
2018-06-10T12:35:08.303Z,39.43
2018-06-10T12:37:37.616Z,41.23
2018-06-10T12:40:17.647Z,43.37
2018-06-10T12:42:47.340Z,42.57
2018-06-10T12:45:16.607Z,45.23
2018-06-10T12:47:46.003Z,41.47
2018-06-10T12:50:15.421Z,43.13
2018-06-10T12:52:44.536Z,41.37
2018-06-10T12:55:18.170Z,42.07
2018-06-10T12:57:48.126Z,41.97
2018-06-10T13:00:21.631Z,41.20
2018-06-10T13:02:51.102Z,38.43
2018-06-10T13:05:20.348Z,37.40
2018-06-10T13:07:50.325Z,37.73
2018-06-10T13:10:22.372Z,32.00
2018-06-10T13:12:52.401Z,30.93
2018-06-10T13:15:24.754Z,31.20
2018-06-10T13:17:55.235Z,28.23
2018-06-10T13:20:27.719Z,29.30
2018-06-10T13:22:56.725Z,30.27
2018-06-10T13:25:28.172Z,30.40
2018-06-10T13:27:58.263Z,32.20
2018-06-10T13:30:30.666Z,34.00
2018-06-10T13:33:02.159Z,33.13
2018-06-10T13:35:32.746Z,31.57
2018-06-10T13:38:03.045Z,31.83
2018-06-10T13:40:35.285Z,31.87
2018-06-10T13:43:05.869Z,28.73
2018-06-10T13:45:36.830Z,32.13
2018-06-10T13:49:36.768Z,29.10
2018-06-10T13:52:06.423Z,27.10
2018-06-10T13:54:45.901Z,29.17
2018-06-10T13:57:17.178Z,27.50
2018-06-10T13:59:48.148Z,29.40
2018-06-10T14:02:21.204Z,29.80
2018-06-10T14:04:53.867Z,29.87
2018-06-10T14:07:24.846Z,29.03
2018-06-10T14:09:55.925Z,27.43
2018-06-10T14:12:26.181Z,27.73
2018-06-10T14:14:59.636Z,27.43
2018-06-10T14:17:30.170Z,27.17
2018-06-10T14:20:00.233Z,25.30
2018-06-10T14:22:29.606Z,28.83
2018-06-10T14:25:00.177Z,24.37
2018-06-10T14:27:29.779Z,23.90
2018-06-10T14:29:59.189Z,26.13
2018-06-10T14:32:28.512Z,24.43
2018-06-10T14:34:58.193Z,22.80
2018-06-10T14:37:29.748Z,21.80
2018-06-10T14:40:03.566Z,21.60
2018-06-10T14:42:34.256Z,19.97
2018-06-10T14:45:04.161Z,20.33
2018-06-10T14:47:34.134Z,19.30
2018-06-10T14:50:06.194Z,18.97
2018-06-10T14:52:37.373Z,18.60
2018-06-10T14:55:07.201Z,19.03
2018-06-10T14:57:38.352Z,19.60
2018-06-10T15:00:09.859Z,22.23
2018-06-10T15:02:39.363Z,20.37
2018-06-10T15:05:17.715Z,20.67
2018-06-10T15:07:48.497Z,20.60
2018-06-10T15:10:18.253Z,19.10
2018-06-10T15:12:48.190Z,19.90
2018-06-10T15:15:18.319Z,22.70
2018-06-10T15:17:50.414Z,21.07
2018-06-10T15:20:21.215Z,22.47
2018-06-10T15:22:51.566Z,22.80
2018-06-10T15:25:20.739Z,20.40
2018-06-10T15:27:50.753Z,19.93
2018-06-10T15:30:22.254Z,19.57
2018-06-10T15:32:52.346Z,18.97
2018-06-10T15:35:23.940Z,19.80
2018-06-10T15:37:55.617Z,19.17
2018-06-10T15:40:34.252Z,18.37
2018-06-10T15:43:03.366Z,17.20
2018-06-10T15:45:33.756Z,19.13
2018-06-10T15:48:03.582Z,17.87
2018-06-10T15:50:34.570Z,18.67
2018-06-10T15:53:06.611Z,19.63
2018-06-10T15:55:36.436Z,21.10
2018-06-10T15:58:06.272Z,18.23
2018-06-10T16:00:36.583Z,19.63
2018-06-10T16:03:06.920Z,19.30
2018-06-10T16:05:39.215Z,18.63
2018-06-10T16:08:10.318Z,18.63
2018-06-10T16:10:39.166Z,17.43
2018-06-10T16:13:08.114Z,17.37
2018-06-10T16:15:38.670Z,17.13
2018-06-10T16:18:08.797Z,18.43
2018-06-10T16:20:42.164Z,19.90
2018-06-10T16:23:12.090Z,18.77
2018-06-10T16:25:44.302Z,20.30
2018-06-10T16:28:13.265Z,17.53
2018-06-10T16:30:47.182Z,19.17
2018-06-10T16:33:26.213Z,18.60
2018-06-10T16:36:02.313Z,18.63
2018-06-10T16:38:33.191Z,15.97
2018-06-10T16:41:06.221Z,17.80
2018-06-10T16:43:36.652Z,16.73
2018-06-10T16:46:08.984Z,18.00
2018-06-10T16:48:39.484Z,18.50
2018-06-10T16:51:09.384Z,17.20
2018-06-10T16:53:38.916Z,17.70
2018-06-10T16:56:08.648Z,16.93
2018-06-10T16:58:38.300Z,18.70
2018-06-10T17:01:10.490Z,17.27
2018-06-10T17:03:41.340Z,17.73
2018-06-10T17:06:13.611Z,16.20
2018-06-10T17:08:46.065Z,16.40
2018-06-10T17:11:20.337Z,18.20
2018-06-10T17:13:52.343Z,15.07
2018-06-10T17:16:23.886Z,16.70
2018-06-10T17:18:53.494Z,15.07
2018-06-10T17:21:24.306Z,15.20
2018-06-10T17:23:53.744Z,13.97
2018-06-10T17:26:25.426Z,14.30
2018-06-10T17:28:56.620Z,13.73
2018-06-10T17:31:26.484Z,12.60
2018-06-10T17:33:57.527Z,12.70
2018-06-10T17:36:27.673Z,12.40
2018-06-10T17:38:56.930Z,13.33
2018-06-10T17:41:28.091Z,12.47
2018-06-10T17:43:59.452Z,11.13
2018-06-10T17:46:28.730Z,10.87
2018-06-10T17:49:02.641Z,11.10
2018-06-10T17:51:33.702Z,12.23
2018-06-10T17:54:05.492Z,10.50
2018-06-10T17:56:35.325Z,11.60
2018-06-10T17:59:05.081Z,10.23
2018-06-10T18:01:34.794Z,10.90
2018-06-10T18:04:04.433Z,10.53
2018-06-10T18:06:34.714Z,9.73
2018-06-10T18:09:08.715Z,8.97
2018-06-10T18:11:40.180Z,10.13
2018-06-10T18:14:09.607Z,10.03
2018-06-10T18:16:41.645Z,8.93
2018-06-10T18:19:13.066Z,9.53
2018-06-10T18:21:42.592Z,9.00
2018-06-10T18:24:12.175Z,9.03
2018-06-10T18:26:41.462Z,10.40
2018-06-10T18:29:11.242Z,9.70
2018-06-10T18:31:40.633Z,9.67
2018-06-10T18:34:11.097Z,8.60
2018-06-10T18:36:42.783Z,8.60
2018-06-10T18:39:23.841Z,8.97
2018-06-10T18:41:58.535Z,9.60
2018-06-10T18:44:27.464Z,9.87
2018-06-10T18:46:56.896Z,9.37
2018-06-10T18:49:26.296Z,10.47
2018-06-10T18:51:55.437Z,9.50
2018-06-10T18:54:25.463Z,9.73
2018-06-10T18:56:55.295Z,8.73
2018-06-10T18:59:24.724Z,8.77
2018-06-10T19:01:54.122Z,9.30
2018-06-10T19:04:26.673Z,9.10
2018-06-10T19:06:56.521Z,9.67
2018-06-10T19:12:04.366Z,9.10
2018-06-10T19:14:34.230Z,9.40
2018-06-10T19:17:04.177Z,9.03
2018-06-10T19:19:35.548Z,9.60
2018-06-10T19:22:08.225Z,9.50
2018-06-10T19:31:48.712Z,9.20
2018-06-10T19:34:18.925Z,10.23
2018-06-10T19:36:53.450Z,10.77
2018-06-10T19:39:22.633Z,10.83
2018-06-10T19:41:54.678Z,9.83
2018-06-10T19:44:27.377Z,10.10
2018-06-10T19:49:38.198Z,9.50
2018-06-10T19:52:14.454Z,8.87
2018-06-10T19:54:45.706Z,9.90
2018-06-10T19:57:15.449Z,10.63
2018-06-10T19:59:46.891Z,10.73
2018-06-10T20:02:18.224Z,9.17
2018-06-10T20:04:48.180Z,9.50
2018-06-10T20:07:18.771Z,8.77
2018-06-10T20:09:49.233Z,10.50
2018-06-10T20:12:19.420Z,9.77
2018-06-10T20:14:49.627Z,9.97
2018-06-10T20:17:19.730Z,10.77
2018-06-10T20:19:49.400Z,9.73
2018-06-10T20:22:26.078Z,9.63
2018-06-10T20:24:56.350Z,9.57
2018-06-10T20:27:26.567Z,9.90
2018-06-10T20:30:00.063Z,10.23
2018-06-10T20:32:31.235Z,10.03
2018-06-10T20:35:02.107Z,10.33
2018-06-10T20:37:33.785Z,10.27
2018-06-10T20:40:06.367Z,10.97
2018-06-10T20:42:36.595Z,10.37
2018-06-10T20:45:07.679Z,10.90
2018-06-10T20:47:39.097Z,10.83
2018-06-10T20:50:10.826Z,11.50
2018-06-10T20:52:41.350Z,11.40
2018-06-10T21:02:26.423Z,9.77
2018-06-10T21:04:55.773Z,11.07
2018-06-10T21:07:29.718Z,10.47
2018-06-10T21:10:04.613Z,11.50
2018-06-10T21:12:44.212Z,11.80
2018-06-10T21:15:13.766Z,11.00
2018-06-10T21:17:49.319Z,11.50
2018-06-10T21:20:23.450Z,10.40
2018-06-10T21:22:58.349Z,13.70
2018-06-10T21:25:28.306Z,11.53
2018-06-10T21:27:58.669Z,11.93
2018-06-10T21:30:29.606Z,10.23
2018-06-10T21:33:03.746Z,11.20
2018-06-10T21:35:37.014Z,11.27
2018-06-10T21:38:07.794Z,11.43
2018-06-10T21:40:40.592Z,10.60
2018-06-10T21:43:09.821Z,10.80
2018-06-10T21:45:39.229Z,10.30
2018-06-10T21:48:08.745Z,11.17
2018-06-10T21:50:38.737Z,10.77
2018-06-10T21:53:08.022Z,11.63
2018-06-10T21:55:37.734Z,11.67
2018-06-10T21:58:07.182Z,12.80
2018-06-10T22:00:36.854Z,10.20
2018-06-10T22:03:07.157Z,11.23
2018-06-10T22:05:36.657Z,9.10
2018-06-10T22:08:10.107Z,11.78
2018-06-10T22:10:40.189Z,10.47
2018-06-10T22:13:13.081Z,11.63
2018-06-10T22:15:43.272Z,11.50
2018-06-10T22:18:14.637Z,11.90
2018-06-10T22:20:43.212Z,12.77
2018-06-10T22:23:17.548Z,12.20
2018-06-10T22:25:48.217Z,11.83
2018-06-10T22:28:17.538Z,12.43
2018-06-10T22:30:59.668Z,12.27
2018-06-10T22:33:29.814Z,12.27
2018-06-10T22:36:00.698Z,11.43
2018-06-10T22:38:30.599Z,12.47
2018-06-10T22:41:00.289Z,12.27
2018-06-10T22:43:29.173Z,12.73
2018-06-10T22:45:59.074Z,11.67
2018-06-10T22:48:28.989Z,12.43
2018-06-10T22:51:00.906Z,12.00
2018-06-10T22:54:38.769Z,12.33
2018-06-10T22:57:08.599Z,11.70
2018-06-10T22:59:37.864Z,12.73
2018-06-10T23:02:08.254Z,12.70
2018-06-10T23:04:38.445Z,12.43
2018-06-10T23:07:07.553Z,11.73
2018-06-10T23:09:36.327Z,13.20
2018-06-10T23:12:06.223Z,10.67
2018-06-10T23:14:36.052Z,15.73
2018-06-10T23:17:05.527Z,13.77
2018-06-10T23:19:34.414Z,13.27
2018-06-10T23:22:03.549Z,11.77
2018-06-10T23:24:36.301Z,12.80
2018-06-10T23:27:06.724Z,13.03
2018-06-10T23:29:37.349Z,12.87
2018-06-10T23:32:06.190Z,13.07
2018-06-10T23:34:42.594Z,12.77
2018-06-10T23:37:11.923Z,13.37
2018-06-10T23:39:42.699Z,13.20
2018-06-10T23:42:11.427Z,13.17
2018-06-10T23:44:44.806Z,12.70
2018-06-10T23:47:14.015Z,13.10
2018-06-10T23:49:48.159Z,13.10
2018-06-10T23:52:17.283Z,13.57
2018-06-10T23:54:49.087Z,13.20
2018-06-10T23:57:17.831Z,12.53
2018-06-10T23:59:50.719Z,12.60
